Istrana Air Base

LIPS · 威尼托, 意大利

罗盘
风向 的 风向 020° Istrana Air Base 8/26
风: 40 kt, 8 beaufort

20 kt

35 kt
改变
0 ft 2.000 4.000 6.000 8.000 10.000
Cloud Cloud Cloud Cloud Cloud Cloud
BKN 3.000
Cloud Cloud Cloud Cloud Cloud Cloud
BKN 6.000
METAR LIPS 262355Z 02040KT 7000 -RA BKN030 BKN060 08/08 Q1008 RMK OVC VIS MIN 7000 WIND THR26 01013KT WIND THR08 04014KT WHT

METAR Istrana Air Base - LIPS

Istrana Air Base是,意大利中的中型机场。 该机场位于纬度45,68445和经度12,08720。 该机场有一条跑道: 8/26. 本场的ICAO机场代码为LIPS。 机场在Milano FIR中。

该航空气象观测是针对Istrana Air Base在2024年2月27日 00:55, 当地时间进行的。

机场观察

风向为020°,速度为40 kt。

可见度为7 km。

有碎云在3.000 ft的高度 和 碎云在6.000 ft的高度。 破损或更高的上限为3.000 ft。

当前天气为光 雨。 温度为8 °C,阵风为-1 °C。 露点为8 °C,相对湿度为100%。 海平面上的气压为1008 hPa (QNH)。

白天

今天,太阳从06:54升起,在17:54降落。 这适用于Istrana Air Base,世界夏令时可能有所不同。 当地时间与世界标准时间之间的时差为+1 小时。 当前,没有夏令时有效。

公司介绍

我们没有关于这个机场的公司信息。

体会

到Vliegles.nl去找飞行课程,跳伞和其他飞行体验。 浏览页面,了解Istrana Air Base附近所有可用的活动。 你也可以使用搜索功能来寻找你所在地附近的特定飞行课程、跳伞或其他飞行体验。

跑道

Id 标题 侧风 逆风 侧风 %
8/26 080°-260° 35 kt 20 kt 87 %

逆风成分最大的方向会被突出显示,并用于横风计算。 这并不一定意味着这个方向在使用。

乌云

3.000 ft BKN 碎云
6.000 ft BKN 碎云

温度 & 天气

天气 光 雨
温度 8 °C
露点 8 °C
相对湿度 100%
风寒 -1 °C
Kp-index 2 (0-9)

评论

OVC VIS MIN 7000 WIND THR26 01013KT WIND THR08 04014KT

白天

日出
06:56 (4:53)
中午
12:24
日落
17:53

小工具

你想在你的网站上有一个关于Istrana Air Base的当前航空天气(METAR)的小部件吗?

显示HTML代码
?>